Terminal Aerodrome Forecast
Issued by NWS

Home | Current Version | Previous Version | Text Only | Print | Product List | Glossary On
Versions: 1 2 3 4 5 6 7 8 9 10 11 12 13 14 15 16 17
193
FTUS43 KSGF 221720
TAFJLN
TAF
KJLN 221720Z 2218/2318 18007KT P6SM BKN030
     FM230000 16006KT P6SM BKN040
     FM230900 VRB03KT P6SM OVC030
     FM231000 18004KT 5SM BR OVC020
     FM231200 32006KT P6SM OVC020 PROB30 2312/2316 5SM TS BKN020CB=

USA.gov is the U.S. government's official web portal to all federal, state and local government web resources and services.